Time;durP1;ratioP1;P1;durP2;ratioP2;P2;SDS_P1;SDS_P2;PMS_P1;PMS_P2;Temp;Humidity;BMP_temperature;BMP_pressure;BME280_temperature;BME280_humidity;BME280_pressure;Samples;Min_cycle;Max_cycle;Signal;HPM_P1;HPM_P2
2022/11/14 00:00:44;;;;;;;;;34.00;28.67;;;;;10.29;79.74;100871.59;5048489;28;64545;-82
2022/11/14 00:03:10;;;;;;;;;31.00;26.50;;;;;10.31;79.74;100881.34;5051179;28;45411;-80
2022/11/14 00:05:41;;;;;;;;;34.25;29.50;;;;;10.21;79.93;100855.53;5051842;28;45696;-81
2022/11/14 00:08:12;;;;;;;;;32.25;29.50;;;;;10.36;79.94;100871.00;5032551;28;46231;-82
2022/11/14 00:10:37;;;;;;;;;29.50;27.75;;;;;10.36;79.87;100875.38;5051412;28;45737;-82
2022/11/14 00:13:03;;;;;;;;;37.33;31.33;;;;;10.29;80.21;100855.84;5050055;28;58331;-81
2022/11/14 00:15:28;;;;;;;;;37.75;30.00;;;;;10.36;79.95;100875.38;5050799;28;45560;-81
2022/11/14 00:17:53;;;;;;;;;34.75;32.50;;;;;10.36;80.25;100868.38;5050752;28;45399;-81
2022/11/14 00:20:19;;;;;;;;;36.33;29.00;;;;;10.37;79.76;100856.13;5051326;28;45697;-82
2022/11/14 00:22:44;;;;;;;;;41.75;34.00;;;;;10.37;80.00;100856.13;5050676;28;45462;-81
2022/11/14 00:25:09;;;;;;;;;33.67;29.33;;;;;10.38;80.09;100853.56;5050450;28;64659;-81
2022/11/14 00:27:35;;;;;;;;;43.50;36.25;;;;;10.40;80.06;100851.00;5033017;28;45940;-81
2022/11/14 00:30:00;;;;;;;;;38.75;34.75;;;;;10.40;79.90;100843.13;5050007;28;45760;-81
2022/11/14 00:32:25;;;;;;;;;34.25;31.00;;;;;10.40;80.06;100848.38;5051230;28;45629;-82
2022/11/14 00:34:50;;;;;;;;;35.33;33.00;;;;;10.40;80.30;100851.00;5050407;28;52891;-81
2022/11/14 00:37:16;;;;;;;;;36.67;34.33;;;;;10.41;80.04;100848.44;5033355;28;67375;-81
2022/11/14 00:39:41;;;;;;;;;32.50;31.00;;;;;10.41;80.28;100847.53;5054223;28;45479;-81
2022/11/14 00:42:07;;;;;;;;;33.67;30.67;;;;;10.39;80.38;100841.31;5054126;28;45551;-81
2022/11/14 00:44:33;;;;;;;;;35.50;31.25;;;;;10.44;80.22;100840.66;5053917;28;45422;-81
2022/11/14 00:46:58;;;;;;;;;25.67;23.33;;;;;10.29;79.99;100816.44;5052755;28;71950;-82
2022/11/14 00:49:23;;;;;;;;;18.75;16.00;;;;;10.28;79.91;100810.28;5054436;28;45421;-82
2022/11/14 00:51:48;;;;;;;;;31.25;29.75;;;;;10.42;80.16;100834.44;5053803;28;45273;-81
2022/11/14 00:54:14;;;;;;;;;34.00;29.00;;;;;10.37;80.11;100825.50;5054175;28;45399;-81
2022/11/14 00:56:39;;;;;;;;;29.67;25.67;;;;;10.31;80.31;100823.56;5053353;28;65052;-81
2022/11/14 00:59:04;;;;;;;;;32.00;30.25;;;;;10.28;80.29;100812.03;5052893;28;45671;-82
2022/11/14 01:01:30;;;;;;;;;30.75;25.75;;;;;10.41;80.34;100837.91;5054432;28;45460;-81
2022/11/14 01:03:55;;;;;;;;;31.25;29.50;;;;;10.40;80.26;100841.38;5053787;28;45774;-81
2022/11/14 01:06:21;;;;;;;;;30.25;27.75;;;;;10.38;79.92;100835.16;5054178;28;46509;-81
2022/11/14 01:08:49;;;;;;;;;27.75;24.50;;;;;10.38;80.30;100834.28;5053528;28;45513;-82
2022/11/14 01:11:18;;;;;;;;;27.75;24.00;;;;;10.38;80.25;100840.41;5053768;28;45424;-82
2022/11/14 01:13:44;;;;;;;;;31.75;27.50;;;;;10.28;80.29;100819.91;5053482;28;45358;-82
2022/11/14 01:16:30;;;;;;;;;30.75;24.25;;;;;10.25;80.32;100804.94;5053240;28;45779;-80
2022/11/14 01:18:56;;;;;;;;;24.25;22.75;;;;;10.38;80.19;100815.88;5053178;28;46268;-81
2022/11/14 01:21:21;;;;;;;;;38.00;30.33;;;;;10.15;80.44;100779.16;5053097;28;64312;-82
2022/11/14 01:23:46;;;;;;;;;26.50;22.75;;;;;10.20;80.37;100788.09;5053449;28;45397;-81
2022/11/14 01:26:13;;;;;;;;;32.67;29.00;;;;;10.35;80.16;100821.94;5052960;28;65528;-82
2022/11/14 01:28:39;;;;;;;;;27.00;24.00;;;;;10.31;80.11;100813.03;5053111;28;45409;-81
2022/11/14 01:31:15;;;;;;;;;36.75;27.75;;;;;10.32;80.10;100813.94;5052911;28;45649;-81
2022/11/14 01:33:40;;;;;;;;;32.00;24.75;;;;;10.05;79.99;100772.66;5053218;28;45941;-81
2022/11/14 01:36:07;;;;;;;;;33.25;29.25;;;;;10.22;80.11;100817.91;5034648;28;47476;-81
2022/11/14 01:38:33;;;;;;;;;29.50;26.75;;;;;10.22;80.62;100810.03;5053808;28;45472;-81
2022/11/14 01:40:59;;;;;;;;;28.25;25.00;;;;;10.23;80.45;100803.94;5035510;28;45555;-82
2022/11/14 01:43:36;;;;;;;;;28.00;25.00;;;;;10.25;80.66;100794.44;5053565;28;45524;-81
2022/11/14 01:46:06;;;;;;;;;29.25;27.50;;;;;10.25;80.78;100804.06;5052822;28;45641;-82
2022/11/14 01:48:40;;;;;;;;;38.75;31.50;;;;;10.23;81.02;100784.66;5034988;28;45493;-81
2022/11/14 01:51:17;;;;;;;;;40.75;33.00;;;;;10.28;80.88;100793.63;5052919;28;45497;-81
2022/11/14 01:53:44;;;;;;;;;35.75;30.00;;;;;10.29;80.80;100796.31;5053224;28;45792;-81
2022/11/14 01:56:15;;;;;;;;;30.00;25.75;;;;;10.25;80.71;100786.56;5053099;28;45977;-81
2022/11/14 01:58:45;;;;;;;;;31.00;23.00;;;;;10.21;80.52;100791.59;5052886;28;45868;-81
2022/11/14 02:01:11;;;;;;;;;29.25;28.25;;;;;10.14;80.45;100782.59;5052762;28;45410;-81
2022/11/14 02:03:40;;;;;;;;;24.75;20.75;;;;;10.09;80.64;100781.53;5052987;28;45471;-81
2022/11/14 02:06:07;;;;;;;;;29.25;27.50;;;;;10.07;80.56;100786.72;5034397;28;46123;-81
2022/11/14 02:08:33;;;;;;;;;27.75;24.00;;;;;10.09;80.38;100795.53;5053119;28;45486;-81
2022/11/14 02:10:59;;;;;;;;;26.00;23.50;;;;;10.04;80.49;100802.34;5052761;28;45520;-80
2022/11/14 02:13:24;;;;;;;;;30.00;27.33;;;;;10.02;80.79;100798.78;5052269;28;57421;-80
2022/11/14 02:15:50;;;;;;;;;25.25;23.25;;;;;9.99;80.66;100801.28;5051894;28;46033;-81
2022/11/14 02:18:16;;;;;;;;;24.75;22.75;;;;;9.95;80.90;100799.41;5052903;28;45392;-81
2022/11/14 02:20:42;;;;;;;;;25.00;22.00;;;;;9.88;80.92;100791.22;5051991;28;60575;-80
2022/11/14 02:23:09;;;;;;;;;27.00;21.75;;;;;9.78;80.90;100777.75;5052424;28;45667;-80
2022/11/14 02:25:35;;;;;;;;;24.75;21.00;;;;;9.75;80.92;100772.41;5052869;28;46099;-82
2022/11/14 02:28:01;;;;;;;;;27.00;25.00;;;;;9.71;81.06;100766.97;5052056;28;45490;-81
2022/11/14 02:30:27;;;;;;;;;31.00;23.75;;;;;9.83;80.83;100785.81;5053169;28;45381;-82
2022/11/14 02:32:52;;;;;;;;;16.25;15.50;;;;;9.73;80.95;100776.69;5051749;28;45611;-82
2022/11/14 02:35:17;;;;;;;;;25.25;21.50;;;;;9.67;81.14;100760.72;5052206;28;45553;-81
2022/11/14 02:37:42;;;;;;;;;22.50;21.50;;;;;9.77;81.06;100777.72;5052401;28;45492;-81
2022/11/14 02:40:08;;;;;;;;;22.00;19.00;;;;;9.77;81.46;100772.47;5052573;28;45350;-82
2022/11/14 02:42:34;;;;;;;;;22.00;18.75;;;;;9.57;80.91;100741.09;5052718;28;45428;-82
2022/11/14 02:44:59;;;;;;;;;20.75;17.50;;;;;9.63;81.04;100769.28;5052186;28;45697;-82
2022/11/14 02:47:24;;;;;;;;;23.50;21.25;;;;;9.58;81.28;100757.72;5052330;28;45686;-81
2022/11/14 02:49:50;;;;;;;;;26.00;24.67;;;;;9.45;81.36;100737.97;5051466;28;63389;-82
2022/11/14 02:52:16;;;;;;;;;25.50;20.00;;;;;9.54;81.14;100753.19;5033441;28;55724;-80
2022/11/14 02:54:41;;;;;;;;;24.00;20.25;;;;;9.54;81.72;100755.81;5052081;28;45387;-80
2022/11/14 02:57:06;;;;;;;;;22.50;20.75;;;;;9.41;81.55;100724.69;5052034;28;45781;-80
2022/11/14 02:59:32;;;;;;;;;21.33;20.33;;;;;9.54;81.75;100738.34;5051354;28;45383;-80
2022/11/14 03:01:57;;;;;;;;;18.00;17.00;;;;;9.53;81.72;100733.94;5032729;28;62083;-80
2022/11/14 03:04:22;;;;;;;;;20.00;17.50;;;;;9.48;81.68;100722.38;5052431;28;46614;-80
2022/11/14 03:06:47;;;;;;;;;20.75;18.50;;;;;9.52;81.81;100724.28;5051665;28;45415;-80
2022/11/14 03:09:13;;;;;;;;;19.67;17.67;;;;;9.51;82.08;100717.25;5051626;28;60357;-80
2022/11/14 03:11:38;;;;;;;;;23.75;18.00;;;;;9.38;81.86;100695.72;5052003;28;45400;-80
2022/11/14 03:14:04;;;;;;;;;20.00;16.00;;;;;9.53;81.96;100712.94;5050567;28;63723;-80
2022/11/14 03:16:29;;;;;;;;;17.00;17.00;;;;;9.55;81.64;100718.25;5051964;28;45625;-80
2022/11/14 03:18:55;;;;;;;;;20.25;17.25;;;;;9.52;81.56;100712.91;5051754;28;45354;-80
2022/11/14 03:21:21;;;;;;;;;21.00;19.25;;;;;9.59;81.60;100719.25;5052101;28;45292;-80
2022/11/14 03:23:47;;;;;;;;;21.00;19.00;;;;;9.44;81.61;100695.97;5033385;28;46328;-80
2022/11/14 03:26:13;;;;;;;;;22.25;21.50;;;;;9.58;82.00;100713.13;5051585;28;45977;-80
2022/11/14 03:28:39;;;;;;;;;22.00;18.00;;;;;9.39;81.83;100685.28;5051780;28;45640;-80
2022/11/14 03:31:07;;;;;;;;;22.50;21.00;;;;;9.63;82.16;100722.06;5051430;28;45784;-80
2022/11/14 03:33:33;;;;;;;;;22.25;20.50;;;;;9.56;81.78;100713.06;5051655;28;46483;-80
2022/11/14 03:35:59;;;;;;;;;21.25;19.25;;;;;9.65;81.70;100719.50;5033069;28;45685;-80
2022/11/14 03:38:24;;;;;;;;;26.25;20.75;;;;;9.68;81.86;100720.50;5052304;28;45803;-81
2022/11/14 03:40:50;;;;;;;;;24.00;22.67;;;;;9.66;81.62;100714.31;5051160;28;54564;-81
2022/11/14 03:43:17;;;;;;;;;23.50;20.75;;;;;9.70;81.54;100716.19;5032938;28;46983;-81
2022/11/14 03:45:43;;;;;;;;;22.00;20.00;;;;;9.72;81.63;100711.91;5050965;28;45374;-81
2022/11/14 03:48:08;;;;;;;;;24.50;20.75;;;;;9.77;81.84;100715.59;5051414;28;45494;-81
2022/11/14 03:50:33;;;;;;;;;18.25;16.75;;;;;9.74;81.58;100712.84;5051452;28;45382;-80
2022/11/14 03:52:59;;;;;;;;;23.75;20.00;;;;;9.79;82.09;100708.66;5051041;28;45839;-80
2022/11/14 03:55:24;;;;;;;;;22.00;19.75;;;;;9.78;81.61;100704.25;5051238;28;62967;-81
2022/11/14 03:57:50;;;;;;;;;20.50;18.50;;;;;9.79;81.78;100705.16;5050969;28;45449;-81
2022/11/14 04:00:16;;;;;;;;;20.67;19.00;;;;;9.69;81.75;100687.28;5051733;28;45517;-81
2022/11/14 04:02:41;;;;;;;;;24.50;20.00;;;;;9.75;81.78;100698.00;5050620;28;46302;-81
2022/11/14 04:05:07;;;;;;;;;21.00;20.50;;;;;9.69;81.95;100680.28;5049429;28;45555;-81
2022/11/14 04:07:32;;;;;;;;;15.75;15.00;;;;;9.78;81.68;100696.38;5051793;28;45470;-81
2022/11/14 04:09:57;;;;;;;;;18.33;17.67;;;;;9.73;81.55;100692.69;5050238;28;65065;-81
2022/11/14 04:12:23;;;;;;;;;20.00;18.33;;;;;9.78;81.61;100704.25;5052134;28;60738;-81
2022/11/14 04:14:48;;;;;;;;;27.67;21.67;;;;;9.79;81.49;100711.28;5053754;28;61480;-82
2022/11/14 04:17:13;;;;;;;;;24.50;22.50;;;;;9.60;81.50;100698.31;5054335;28;45677;-82
2022/11/14 04:19:39;;;;;;;;;18.00;17.33;;;;;9.61;81.44;100705.38;5054309;28;48710;-81
2022/11/14 04:22:05;;;;;;;;;16.00;16.00;;;;;9.58;81.69;100702.63;5053696;28;67166;-82
2022/11/14 04:24:30;;;;;;;;;18.75;17.25;;;;;9.62;81.76;100717.66;5054916;28;45790;-82
2022/11/14 04:26:56;;;;;;;;;27.00;23.25;;;;;9.63;82.37;100716.81;5054035;28;45512;-82
2022/11/14 04:29:21;;;;;;;;;38.25;34.25;;;;;9.60;81.89;100714.06;5054873;28;45826;-81
2022/11/14 04:31:46;;;;;;;;;37.75;33.00;;;;;9.65;81.84;100728.25;5035481;28;47551;-82
2022/11/14 04:34:11;;;;;;;;;37.67;33.67;;;;;9.63;81.90;100715.94;5054040;28;45827;-82
2022/11/14 04:36:37;;;;;;;;;36.00;34.00;;;;;9.64;81.88;100707.22;5053986;28;58616;-81
2022/11/14 04:39:02;;;;;;;;;35.67;33.00;;;;;9.65;82.27;100709.88;5053716;28;53226;-82
2022/11/14 04:41:28;;;;;;;;;33.00;30.00;;;;;9.65;82.35;100703.75;5054145;28;45559;-82
2022/11/14 04:43:53;;;;;;;;;38.75;32.00;;;;;9.63;82.31;100700.19;5054105;28;45565;-82
2022/11/14 04:46:18;;;;;;;;;30.00;27.00;;;;;9.64;82.50;100707.22;5054362;28;45409;-82
2022/11/14 04:48:43;;;;;;;;;30.67;27.33;;;;;9.61;82.61;100708.00;5053208;28;56491;-82
2022/11/14 04:51:09;;;;;;;;;27.67;24.67;;;;;9.60;82.68;100705.31;5035024;28;65159;-82
2022/11/14 04:53:34;;;;;;;;;31.50;24.50;;;;;9.57;82.60;100690.34;5053738;28;55808;-81
2022/11/14 04:55:59;;;;;;;;;29.25;24.00;;;;;9.47;82.43;100668.13;5053482;28;45440;-81
2022/11/14 04:58:25;;;;;;;;;25.00;21.67;;;;;9.66;82.75;100693.31;5053981;28;62086;-80
2022/11/14 05:00:50;;;;;;;;;25.50;23.25;;;;;9.61;82.56;100676.53;5053283;28;45750;-80
2022/11/14 05:03:16;;;;;;;;;22.25;15.75;;;;;9.52;82.79;100665.69;5034943;28;57097;-80
2022/11/14 05:05:41;;;;;;;;;21.67;17.67;;;;;9.66;82.97;100674.06;5053511;28;58097;-81
2022/11/14 05:08:06;;;;;;;;;19.67;17.00;;;;;9.69;82.84;100682.91;5053079;28;56768;-81
2022/11/14 05:10:31;;;;;;;;;22.67;19.67;;;;;9.64;82.27;100668.75;5053073;28;69448;-81
2022/11/14 05:12:57;;;;;;;;;20.67;16.33;;;;;9.49;83.10;100640.19;5048076;28;52858;-80
2022/11/14 05:15:22;;;;;;;;;19.33;18.67;;;;;9.49;83.63;100655.94;5034111;28;45534;-80
2022/11/14 05:17:47;;;;;;;;;30.25;22.00;;;;;9.59;84.31;100679.91;5033149;28;45659;-80
2022/11/14 05:20:13;;;;;;;;;21.67;19.00;;;;;9.60;84.06;100671.19;5031496;28;61382;-80
2022/11/14 05:22:38;;;;;;;;;22.00;17.00;;;;;9.61;84.28;100670.38;5032504;28;62071;-80
2022/11/14 05:25:04;;;;;;;;;21.00;18.67;;;;;9.53;83.93;100638.59;5033215;28;47885;-80
2022/11/14 05:27:30;;;;;;;;;17.00;16.00;;;;;9.60;84.17;100645.84;5033461;28;45533;-81
2022/11/14 05:29:56;;;;;;;;;16.75;15.75;;;;;9.65;84.18;100654.78;5033085;28;48602;-80
2022/11/14 05:32:21;;;;;;;;;18.00;16.25;;;;;9.53;84.32;100635.97;5033209;28;45449;-80
2022/11/14 05:34:47;;;;;;;;;23.25;18.50;;;;;9.69;84.70;100648.81;5032962;28;45593;-80
2022/11/14 05:37:12;;;;;;;;;19.25;13.75;;;;;9.59;84.27;100622.19;5033589;28;45441;-80
2022/11/14 05:39:37;;;;;;;;;16.75;14.75;;;;;9.73;84.03;100648.09;5033428;28;46677;-80
2022/11/14 05:42:03;;;;;;;;;18.00;13.75;;;;;9.73;84.44;100642.84;5032674;28;45423;-80
2022/11/14 05:44:28;;;;;;;;;19.50;16.75;;;;;9.63;83.90;100624.97;5033733;28;45505;-80
2022/11/14 05:46:54;;;;;;;;;22.50;16.75;;;;;9.69;83.92;100632.16;5032529;28;45467;-80
2022/11/14 05:49:19;;;;;;;;;15.00;14.33;;;;;9.58;84.15;100616.03;5032839;28;51051;-80
2022/11/14 05:51:44;;;;;;;;;23.00;20.67;;;;;9.71;84.10;100633.13;5032662;28;56822;-80
2022/11/14 05:54:10;;;;;;;;;17.00;16.00;;;;;9.63;84.10;100619.72;5033052;28;45376;-80
2022/11/14 05:56:35;;;;;;;;;16.67;15.67;;;;;9.74;83.69;100643.72;5032922;28;45518;-80
2022/11/14 05:59:00;;;;;;;;;21.00;20.25;;;;;9.73;83.74;100642.84;5032537;28;46221;-80
2022/11/14 06:01:26;;;;;;;;;22.00;15.25;;;;;9.72;84.07;100641.06;5033117;28;45540;-81
2022/11/14 06:03:52;;;;;;;;;19.75;16.75;;;;;9.59;84.26;100619.56;5032464;28;45670;-81
2022/11/14 06:06:19;;;;;;;;;18.25;13.75;;;;;9.73;83.73;100637.59;5033295;28;45480;-81
2022/11/14 06:08:45;;;;;;;;;20.25;18.50;;;;;9.65;84.11;100620.66;5032593;28;46255;-80
2022/11/14 06:11:14;;;;;;;;;21.75;19.25;;;;;9.74;83.77;100636.75;5031145;28;45415;-80
2022/11/14 06:13:39;;;;;;;;;19.25;16.00;;;;;9.62;83.83;100607.44;5049412;28;45782;-81
2022/11/14 06:16:08;;;;;;;;;18.50;16.00;;;;;9.77;83.84;100636.88;5034345;28;45770;-82
2022/11/14 06:18:34;;;;;;;;;16.00;14.00;;;;;9.78;83.40;100635.13;5052510;28;45609;-81
2022/11/14 06:21:00;;;;;;;;;22.75;15.25;;;;;9.77;83.53;100638.59;5052541;28;45490;-80
2022/11/14 06:23:27;;;;;;;;;15.00;13.50;;;;;9.75;83.32;100629.75;5053229;28;45517;-81
2022/11/14 06:25:58;;;;;;;;;20.25;18.00;;;;;9.73;83.62;100634.06;5052216;28;45905;-80
2022/11/14 06:28:24;;;;;;;;;18.00;14.50;;;;;9.43;82.98;100600.63;5053486;28;45527;-81
2022/11/14 06:30:49;;;;;;;;;16.75;15.50;;;;;9.63;83.20;100638.09;5052251;28;45555;-81
2022/11/14 06:33:14;;;;;;;;;20.00;17.33;;;;;9.61;83.58;100647.66;5051479;28;59922;-82
2022/11/14 06:35:39;;;;;;;;;16.00;14.00;;;;;9.29;83.36;100605.38;5050785;28;65093;-82
2022/11/14 06:38:05;;;;;;;;;16.00;15.33;;;;;9.49;83.29;100655.06;5051749;28;58013;-81
2022/11/14 06:40:33;;;;;;;;;11.67;11.33;;;;;9.35;83.42;100624.78;5051774;28;65747;-81
2022/11/14 06:42:59;;;;;;;;;18.75;16.25;;;;;9.35;83.72;100627.41;5052047;28;45481;-81
2022/11/14 06:45:24;;;;;;;;;15.25;14.25;;;;;9.48;83.60;100648.03;5052570;28;45386;-81
2022/11/14 06:47:49;;;;;;;;;10.00;10.00;;;;;9.49;83.80;100649.81;5051573;28;45856;-81
2022/11/14 06:50:15;;;;;;;;;20.33;16.00;;;;;9.36;84.27;100639.69;5052292;28;49954;-81
2022/11/14 06:52:40;;;;;;;;;19.25;17.50;;;;;9.34;83.81;100638.75;5033999;28;45834;-82
2022/11/14 06:55:06;;;;;;;;;13.67;13.67;;;;;9.41;83.48;100666.97;5043686;28;45547;-82
2022/11/14 06:57:31;;;;;;;;;19.00;16.25;;;;;9.36;83.36;100673.78;5039428;28;46104;-82
2022/11/14 06:59:57;;;;;;;;;16.33;13.67;;;;;9.14;83.62;100635.38;5037352;28;45379;-81
2022/11/14 07:02:22;;;;;;;;;14.75;13.75;;;;;9.32;83.81;100669.28;5038077;28;45483;-80
2022/11/14 07:04:47;;;;;;;;;16.33;15.00;;;;;9.28;85.57;100670.88;5039848;28;65069;-81
2022/11/14 07:07:12;;;;;;;;;18.33;16.00;;;;;9.35;83.90;100672.00;5033501;28;64568;-80
2022/11/14 07:09:38;;;;;;;;;11.75;10.00;;;;;9.22;83.72;100647.06;5050401;28;45787;-80
2022/11/14 07:12:03;;;;;;;;;14.00;11.25;;;;;9.19;83.92;100644.31;5040928;28;45640;-81
2022/11/14 07:14:29;;;;;;;;;16.00;13.50;;;;;9.27;84.19;100659.50;5051334;28;45824;-81
2022/11/14 07:16:54;;;;;;;;;13.00;10.67;;;;;9.32;83.96;100682.41;5032285;28;46172;-81
2022/11/14 07:19:19;;;;;;;;;12.00;9.25;;;;;9.28;83.92;100671.78;5051750;28;45450;-81
2022/11/14 07:21:44;;;;;;;;;9.67;8.67;;;;;9.32;83.29;100671.91;5051288;28;45444;-80
2022/11/14 07:24:10;;;;;;;;;9.67;8.33;;;;;9.19;83.47;100653.06;5050645;28;55813;-81
2022/11/14 07:26:35;;;;;;;;;9.75;9.25;;;;;9.35;83.78;100672.00;5051524;28;46062;-81
2022/11/14 07:29:00;;;;;;;;;12.00;9.33;;;;;9.22;83.79;100650.56;5049955;28;66411;-81
2022/11/14 07:31:26;;;;;;;;;9.67;9.67;;;;;9.22;84.32;100655.81;5050577;28;52735;-80
2022/11/14 07:33:51;;;;;;;;;14.25;10.25;;;;;9.18;83.73;100647.75;5032324;28;45571;-80
2022/11/14 07:36:16;;;;;;;;;10.50;8.50;;;;;9.38;83.52;100680.88;5049923;28;46044;-82
2022/11/14 07:38:44;;;;;;;;;9.75;8.50;;;;;9.38;83.42;100682.63;5050555;28;45555;-81
2022/11/14 07:41:13;;;;;;;;;11.00;9.00;;;;;9.30;83.24;100656.97;5050806;28;45611;-81
2022/11/14 07:43:39;;;;;;;;;10.50;10.50;;;;;9.43;83.16;100671.47;5051195;28;45468;-80
2022/11/14 07:46:11;;;;;;;;;11.25;10.00;;;;;9.36;83.34;100658.97;5051383;28;46056;-83
2022/11/14 07:48:37;;;;;;;;;10.00;9.00;;;;;9.21;83.42;100619.94;5054861;28;45403;-85
2022/11/14 07:51:05;;;;;;;;;17.50;12.25;;;;;9.01;83.60;100584.19;5036477;28;45776;-88
2022/11/14 07:53:31;;;;;;;;;9.25;8.25;;;;;9.14;83.83;100609.16;5054805;28;45374;-82
2022/11/14 07:56:03;;;;;;;;;10.00;8.75;;;;;9.53;83.19;100665.72;5037054;28;46233;-85
2022/11/14 07:58:28;;;;;;;;;9.75;8.75;;;;;9.57;83.10;100669.38;5058551;28;45733;-81
2022/11/14 08:00:54;;;;;;;;;11.75;10.00;;;;;8.94;83.27;100564.72;5053745;28;45991;-81
2022/11/14 08:03:19;;;;;;;;;9.25;9.00;;;;;9.49;82.89;100642.81;5054317;28;45532;-82
2022/11/14 08:05:45;;;;;;;;;11.25;9.50;;;;;9.64;82.83;100654.72;5053610;28;57365;-82
2022/11/14 08:08:10;;;;;;;;;8.75;8.75;;;;;9.52;82.80;100647.31;5054052;28;45528;-81
2022/11/14 08:10:35;;;;;;;;;11.00;9.33;;;;;9.65;82.79;100654.78;5054569;28;45368;-81
2022/11/14 08:13:03;;;;;;;;;15.00;12.25;;;;;9.65;83.20;100667.91;5053641;28;45320;-81
2022/11/14 08:15:29;;;;;;;;;15.00;11.25;;;;;9.49;83.19;100629.72;5054039;28;46081;-82
2022/11/14 08:17:59;;;;;;;;;15.00;13.00;;;;;9.70;82.92;100676.84;5053529;28;45535;-82
2022/11/14 08:20:25;;;;;;;;;13.50;10.75;;;;;9.75;83.07;100664.81;5054818;28;45419;-81
2022/11/14 08:22:51;;;;;;;;;13.00;11.25;;;;;9.77;82.97;100665.75;5054101;28;45720;-79
2022/11/14 08:25:17;;;;;;;;;15.00;14.00;;;;;9.80;82.71;100671.09;5054046;28;46426;-81
2022/11/14 08:27:42;;;;;;;;;14.25;12.50;;;;;9.78;82.40;100664.91;5053985;28;45705;-82
2022/11/14 08:30:08;;;;;;;;;14.00;13.00;;;;;9.76;82.70;100653.47;5053687;28;55396;-80
2022/11/14 08:32:34;;;;;;;;;11.25;9.00;;;;;9.85;82.36;100665.09;5053348;28;45785;-80
2022/11/14 08:34:59;;;;;;;;;12.00;11.00;;;;;9.88;82.44;100666.13;5053483;28;45406;-81
2022/11/14 08:37:24;;;;;;;;;14.00;13.00;;;;;9.93;82.37;100668.91;5049147;28;55716;-80
2022/11/14 08:39:49;;;;;;;;;10.67;10.00;;;;;9.78;82.53;100633.41;5052711;28;48983;-80
2022/11/14 08:42:15;;;;;;;;;13.25;12.00;;;;;9.93;82.59;100648.81;5054049;28;45472;-81
2022/11/14 08:44:40;;;;;;;;;13.00;11.50;;;;;10.02;82.40;100671.88;5053623;28;46218;-81
2022/11/14 08:47:05;;;;;;;;;11.75;10.00;;;;;10.05;81.94;100669.38;5034270;28;45760;-81
2022/11/14 08:49:31;;;;;;;;;10.33;9.33;;;;;9.96;82.21;100659.41;5054041;28;45516;-83
2022/11/14 08:51:56;;;;;;;;;12.33;12.00;;;;;10.10;81.87;100665.16;5053556;28;51053;-81
2022/11/14 08:54:21;;;;;;;;;12.00;10.75;;;;;10.03;81.87;100656.16;5053555;28;45978;-82
2022/11/14 08:56:47;;;;;;;;;10.50;9.50;;;;;9.82;81.84;100616.03;5052960;28;45331;-82
2022/11/14 08:59:13;;;;;;;;;15.25;11.25;;;;;10.13;81.77;100665.25;5053004;28;45531;-83
2022/11/14 09:01:38;;;;;;;;;11.25;11.25;;;;;10.16;81.59;100667.09;5052687;28;45476;-81
2022/11/14 09:04:03;;;;;;;;;14.67;11.00;;;;;10.04;81.54;100662.31;5052519;28;64997;-81
2022/11/14 09:06:29;;;;;;;;;13.50;12.00;;;;;10.06;81.71;100669.41;5051365;28;45583;-81
2022/11/14 09:08:55;;;;;;;;;15.00;14.00;;;;;9.95;81.84;100635.72;5042001;28;45478;-82
2022/11/14 09:11:20;;;;;;;;;13.75;11.75;;;;;10.09;81.92;100647.59;5052073;28;45901;-82
2022/11/14 09:13:45;;;;;;;;;15.00;13.50;;;;;10.15;81.73;100645.22;5051896;28;46187;-82
2022/11/14 09:16:11;;;;;;;;;14.75;11.50;;;;;10.38;82.08;100668.75;5050403;28;66678;-82
2022/11/14 09:18:36;;;;;;;;;16.75;14.50;;;;;10.29;81.59;100645.69;5035248;28;45555;-81
2022/11/14 09:21:07;;;;;;;;;17.75;16.75;;;;;10.33;81.34;100648.47;5053082;28;45402;-81
2022/11/14 09:23:33;;;;;;;;;19.75;18.50;;;;;10.34;81.45;100649.38;5052418;28;46139;-80
2022/11/14 09:26:03;;;;;;;;;16.75;15.00;;;;;10.49;81.09;100670.94;5033250;28;45321;-81
2022/11/14 09:28:28;;;;;;;;;18.00;15.50;;;;;10.48;81.22;100669.13;5016350;28;45805;-80
2022/11/14 09:31:09;;;;;;;;;20.50;17.00;;;;;10.54;80.88;100674.59;5031686;28;45415;-80
2022/11/14 09:33:35;;;;;;;;;18.00;17.00;;;;;10.55;81.36;100667.59;5040302;28;45655;-80
2022/11/14 09:36:04;;;;;;;;;20.75;18.75;;;;;10.62;81.32;100664.31;5052712;28;45489;-80
2022/11/14 09:38:30;;;;;;;;;18.00;17.50;;;;;10.57;80.87;100653.66;5041969;28;45590;-79
2022/11/14 09:41:07;;;;;;;;;20.00;17.75;;;;;10.72;80.85;100662.91;5052982;28;45701;-81
2022/11/14 09:43:38;;;;;;;;;23.75;21.50;;;;;10.75;81.30;100660.38;5052922;28;45445;-80
2022/11/14 09:46:17;;;;;;;;;21.00;18.25;;;;;10.82;80.73;100657.09;5033774;28;45502;-80
2022/11/14 09:48:42;;;;;;;;;18.00;18.00;;;;;10.84;80.74;100669.47;5052693;28;45675;-80
2022/11/14 09:51:19;;;;;;;;;15.25;15.00;;;;;10.87;80.43;100662.50;5052910;28;45652;-80
2022/11/14 09:54:05;;;;;;;;;19.25;17.00;;;;;10.85;80.38;100663.34;5051765;28;46341;-80
2022/11/14 09:56:31;;;;;;;;;17.25;16.75;;;;;10.87;79.99;100660.75;5053013;28;45957;-81
2022/11/14 09:58:56;;;;;;;;;15.00;15.00;;;;;10.89;80.12;100660.81;5052250;28;45441;-80
2022/11/14 10:01:43;;;;;;;;;20.25;18.25;;;;;10.92;80.11;100668.78;5034160;28;45645;-81
2022/11/14 10:04:14;;;;;;;;;24.75;23.50;;;;;10.89;80.05;100673.97;5050817;28;45410;-81
2022/11/14 10:06:59;;;;;;;;;22.25;20.25;;;;;10.67;79.78;100636.47;5043567;28;45308;-81
2022/11/14 10:09:40;;;;;;;;;16.50;15.50;;;;;10.87;79.42;100675.63;5033202;28;45894;-86
2022/11/14 10:12:20;;;;;;;;;18.50;15.75;;;;;10.92;80.30;100671.41;5031604;28;45650;-81
2022/11/14 10:15:37;;;;;;;;;16.00;14.50;;;;;11.01;80.04;100677.88;5032373;28;46198;-81
2022/11/14 10:18:36;;;;;;;;;15.75;15.00;;;;;11.02;79.43;100671.75;5027319;28;46037;-82
2022/11/14 10:21:29;;;;;;;;;20.25;18.75;;;;;11.03;79.54;100663.03;5051148;28;45485;-82
2022/11/14 10:24:13;;;;;;;;;18.50;17.25;;;;;11.04;79.88;100667.47;5049783;28;45500;-81
2022/11/14 10:26:53;;;;;;;;;17.75;17.00;;;;;11.08;79.67;100663.16;5031973;28;47051;-82
2022/11/14 10:29:46;;;;;;;;;20.25;18.25;;;;;11.14;79.22;100659.84;5049767;28;45529;-81
2022/11/14 10:32:31;;;;;;;;;21.25;17.50;;;;;11.13;79.05;100658.94;5049871;28;45428;-81
2022/11/14 10:35:11;;;;;;;;;17.25;16.25;;;;;11.15;78.99;100659.00;5041105;28;45548;-80
2022/11/14 10:37:41;;;;;;;;;21.25;19.00;;;;;11.11;79.30;100656.25;5051584;28;45542;-84
2022/11/14 10:40:17;;;;;;;;;18.50;17.00;;;;;11.13;79.15;100639.63;5051689;28;45700;-80
2022/11/14 10:42:48;;;;;;;;;18.25;18.25;;;;;11.01;79.45;100619.13;5052062;28;45453;-81
2022/11/14 10:45:25;;;;;;;;;22.25;20.25;;;;;11.23;79.38;100646.97;5051319;28;45832;-81
2022/11/14 10:48:01;;;;;;;;;23.50;22.00;;;;;11.24;79.44;100641.75;5032415;28;48682;-81
2022/11/14 10:50:42;;;;;;;;;18.50;16.50;;;;;11.17;79.52;100618.72;5051031;28;45880;-81
2022/11/14 10:53:37;;;;;;;;;19.50;17.75;;;;;11.35;79.53;100628.91;5051494;28;45446;-81
2022/11/14 10:56:03;;;;;;;;;18.50;18.25;;;;;11.44;79.28;100633.56;5035835;28;45551;-82
2022/11/14 10:58:28;;;;;;;;;20.25;18.25;;;;;11.45;79.02;100625.72;5051621;28;45452;-82
2022/11/14 11:00:54;;;;;;;;;24.75;23.25;;;;;11.41;79.19;100610.66;5050760;28;45826;-81
2022/11/14 11:03:19;;;;;;;;;24.25;21.00;;;;;11.46;79.10;100610.81;5051168;28;45456;-81
2022/11/14 11:05:49;;;;;;;;;22.00;21.00;;;;;11.32;79.14;100584.97;5033452;28;45462;-82
2022/11/14 11:13:55;;;;;;;;;23.75;22.00;;;;;11.77;78.97;100616.09;5051265;28;45512;-82
2022/11/14 11:16:25;;;;;;;;;19.75;19.25;;;;;11.78;79.06;100604.72;5051910;28;46061;-82
2022/11/14 11:18:51;;;;;;;;;24.75;21.75;;;;;11.81;78.38;100604.78;5051481;28;45452;-82
2022/11/14 11:21:19;;;;;;;;;18.50;18.25;;;;;11.83;78.27;100618.03;5051049;28;45481;-81